Time;durP1;ratioP1;P1;durP2;ratioP2;P2;SDS_P1;SDS_P2;PMS_P1;PMS_P2;Temp;Humidity;BMP_temperature;BMP_pressure;BME280_temperature;BME280_humidity;BME280_pressure;Samples;Min_cycle;Max_cycle;Signal;HPM_P1;HPM_P2
2023/01/23 00:02:04;;;;;;;0.80;0.80;;;;;;;3.02;100.00;101730.50;5034552;28;20494;-55
2023/01/23 00:04:31;;;;;;;0.57;0.57;;;;;;;2.94;100.00;101737.28;5033795;28;20448;-55
2023/01/23 00:06:57;;;;;;;0.87;0.87;;;;;;;3.02;100.00;101735.75;5033883;28;20542;-55
2023/01/23 00:09:23;;;;;;;0.60;0.40;;;;;;;3.05;100.00;101741.06;5034039;28;20462;-55
2023/01/23 00:11:50;;;;;;;0.57;0.57;;;;;;;3.02;100.00;101740.09;5033664;28;20522;-55
2023/01/23 00:14:17;;;;;;;0.53;0.53;;;;;;;3.09;100.00;101740.28;5033861;28;20443;-55
2023/01/23 00:16:43;;;;;;;0.60;0.60;;;;;;;3.15;100.00;101742.16;5033562;28;20460;-55
2023/01/23 00:19:10;;;;;;;0.60;0.60;;;;;;;3.14;100.00;101743.00;5034093;28;20458;-55
2023/01/23 00:21:36;;;;;;;0.50;0.50;;;;;;;3.06;100.00;101731.44;5033545;28;20816;-55
2023/01/23 00:24:03;;;;;;;0.50;0.50;;;;;;;2.89;100.00;101729.28;5033697;28;20542;-55
2023/01/23 00:26:31;;;;;;;1.60;1.50;;;;;;;2.87;100.00;101737.94;5033660;28;20813;-55
2023/01/23 00:28:58;;;;;;;0.47;0.40;;;;;;;2.91;100.00;101737.19;5034122;28;20452;-55
2023/01/23 00:31:30;;;;;;;0.30;0.20;;;;;;;2.81;100.00;101741.31;5036139;28;20455;-56
2023/01/23 00:34:01;;;;;;;1.20;0.80;;;;;;;2.86;100.00;101738.78;5033349;28;20451;-56
2023/01/23 00:36:30;;;;;;;0.50;0.30;;;;;;;2.90;100.00;101736.31;5033594;28;20487;-55
2023/01/23 00:38:57;;;;;;;0.60;0.60;;;;;;;2.82;100.00;101743.09;5033444;28;20451;-55
2023/01/23 00:41:23;;;;;;;0.80;0.80;;;;;;;2.90;100.00;101743.31;5033117;28;20452;-55
2023/01/23 00:43:51;;;;;;;1.60;0.60;;;;;;;3.00;100.00;101742.66;5034482;28;20448;-55
2023/01/23 00:46:21;;;;;;;1.23;1.03;;;;;;;2.84;100.00;101740.50;5033206;28;20451;-55
2023/01/23 00:48:48;;;;;;;0.70;0.70;;;;;;;2.62;100.00;101737.31;5033067;28;20870;-55
2023/01/23 00:51:14;;;;;;;0.97;0.87;;;;;;;2.64;100.00;101739.97;5033814;28;20486;-55
2023/01/23 00:53:41;;;;;;;2.00;0.90;;;;;;;2.65;100.00;101744.38;5033170;28;20562;-55
2023/01/23 00:56:08;;;;;;;1.03;0.80;;;;;;;2.64;100.00;101738.25;5033080;28;20495;-55
2023/01/23 00:58:34;;;;;;;7.03;1.80;;;;;;;2.65;100.00;101740.03;5033194;28;20451;-55
2023/01/23 01:01:01;;;;;;;0.50;0.50;;;;;;;2.56;100.00;101742.38;5032846;28;20546;-55
2023/01/23 01:03:27;;;;;;;0.30;0.30;;;;;;;2.56;100.00;101747.63;5033290;28;20482;-55
2023/01/23 01:05:54;;;;;;;1.27;1.03;;;;;;;2.49;100.00;101750.97;5033344;28;20448;-55
2023/01/23 01:08:20;;;;;;;0.40;0.40;;;;;;;2.50;100.00;101742.22;5033143;28;20456;-55
2023/01/23 01:10:46;;;;;;;0.60;0.60;;;;;;;2.61;100.00;101742.53;5033174;28;20538;-55
2023/01/23 01:13:15;;;;;;;1.10;0.83;;;;;;;2.64;100.00;101737.34;5032808;28;20467;-56
2023/01/23 01:15:42;;;;;;;0.73;0.73;;;;;;;2.86;100.00;101749.31;5032726;28;20833;-55
2023/01/23 01:18:08;;;;;;;1.53;0.93;;;;;;;2.81;100.00;101753.56;5033801;28;20566;-55
2023/01/23 01:20:35;;;;;;;1.60;1.03;;;;;;;3.10;100.00;101759.56;5033273;28;20463;-56
2023/01/23 01:23:01;;;;;;;0.63;0.40;;;;;;;3.07;100.00;101760.38;5034454;28;21050;-55
2023/01/23 01:25:29;;;;;;;1.27;1.20;;;;;;;2.89;100.00;101755.53;5033294;28;20530;-55
2023/01/23 01:27:55;;;;;;;2.50;1.27;;;;;;;2.92;100.00;101754.72;5033138;28;20452;-55
2023/01/23 01:30:24;;;;;;;0.30;0.20;;;;;;;2.92;100.00;101763.50;5035882;28;20454;-55
2023/01/23 01:32:50;;;;;;;0.83;0.80;;;;;;;2.57;100.00;101759.03;5036250;28;20479;-55
2023/01/23 01:35:17;;;;;;;2.90;1.40;;;;;;;2.77;100.00;101760.47;5033640;28;20491;-55
2023/01/23 01:37:43;;;;;;;1.03;1.03;;;;;;;2.63;100.00;101762.72;5033938;28;20478;-55
2023/01/23 01:40:14;;;;;;;1.93;0.50;;;;;;;2.60;100.00;101772.22;5034551;28;20458;-55
2023/01/23 01:42:43;;;;;;;0.80;0.80;;;;;;;2.61;100.00;101776.66;5033403;28;20858;-55
2023/01/23 01:45:53;;;;;;;1.03;1.03;;;;;;;2.51;100.00;101772.00;5037404;28;20451;-55
2023/01/23 01:48:24;;;;;;;0.57;0.57;;;;;;;2.65;100.00;101782.03;4991785;28;20467;-55
2023/01/23 01:50:52;;;;;;;0.83;0.50;;;;;;;2.76;100.00;101778.81;5033203;28;20447;-56
2023/01/23 01:53:24;;;;;;;1.00;0.93;;;;;;;2.49;100.00;101774.56;5042681;28;20981;-55
2023/01/23 01:55:50;;;;;;;0.93;0.67;;;;;;;2.60;100.00;101775.78;5032755;28;20576;-55
2023/01/23 01:58:17;;;;;;;0.50;0.40;;;;;;;2.54;100.00;101767.72;5033237;28;20452;-55
2023/01/23 02:00:43;;;;;;;1.83;0.70;;;;;;;2.49;100.00;101773.69;5032481;28;21020;-55
2023/01/23 02:03:10;;;;;;;1.27;0.60;;;;;;;2.58;100.00;101771.28;5033002;28;20483;-55
2023/01/23 02:05:43;;;;;;;0.63;0.57;;;;;;;2.56;100.00;101768.63;5033201;28;20965;-55
2023/01/23 02:08:20;;;;;;;0.57;0.50;;;;;;;2.43;100.00;101777.00;5033748;28;20444;-56
2023/01/23 02:10:47;;;;;;;0.73;0.73;;;;;;;2.48;100.00;101775.41;5033999;28;20542;-55
2023/01/23 02:13:27;;;;;;;0.30;0.30;;;;;;;2.54;100.00;101774.69;5044161;28;21007;-55
2023/01/23 02:15:53;;;;;;;1.67;1.67;;;;;;;2.39;100.00;101777.78;5037030;28;20479;-55
2023/01/23 02:18:20;;;;;;;2.00;1.03;;;;;;;2.38;100.00;101776.00;5035782;28;20509;-55
2023/01/23 02:20:50;;;;;;;1.10;1.10;;;;;;;2.30;100.00;101773.13;5038701;28;20458;-55
2023/01/23 02:23:46;;;;;;;1.20;0.20;;;;;;;2.30;100.00;101785.38;5029799;28;20497;-55
2023/01/23 02:26:17;;;;;;;0.50;0.50;;;;;;;2.33;100.00;101780.19;5031963;28;20474;-55
2023/01/23 02:28:46;;;;;;;0.60;0.60;;;;;;;2.47;100.00;101780.59;5032582;28;20454;-55
2023/01/23 02:31:14;;;;;;;1.03;0.77;;;;;;;2.42;100.00;101785.72;5032625;28;20933;-55
2023/01/23 02:33:52;;;;;;;0.93;0.93;;;;;;;2.54;100.00;101787.81;5032545;28;20501;-55
2023/01/23 02:36:22;;;;;;;0.60;0.60;;;;;;;2.55;100.00;101789.59;5032408;28;20537;-55
2023/01/23 02:38:54;;;;;;;3.07;2.90;;;;;;;2.59;100.00;101786.19;5032333;28;20505;-55
2023/01/23 02:41:34;;;;;;;0.93;0.93;;;;;;;2.42;100.00;101787.47;5034446;28;20452;-55
2023/01/23 02:44:07;;;;;;;0.60;0.60;;;;;;;2.63;100.00;101796.84;5036138;28;20455;-55
2023/01/23 02:46:34;;;;;;;1.53;0.60;;;;;;;2.63;100.00;101793.34;5035615;28;20444;-55
2023/01/23 02:49:01;;;;;;;2.33;0.80;;;;;;;2.59;100.00;101787.09;5035516;28;20966;-55
2023/01/23 02:51:27;;;;;;;2.10;1.43;;;;;;;2.53;100.00;101786.03;5044196;28;20457;-55
2023/01/23 02:53:54;;;;;;;2.17;0.77;;;;;;;2.54;100.00;101786.06;5038748;28;20469;-55
2023/01/23 02:56:20;;;;;;;0.40;0.37;;;;;;;2.64;100.00;101788.13;5035333;28;20491;-55
2023/01/23 03:01:34;;;;;;;0.60;0.60;;;;;;;2.63;99.94;101781.09;5035088;28;20465;-55
2023/01/23 03:04:02;;;;;;;2.53;1.57;;;;;;;2.34;100.00;101784.63;5034853;28;20459;-55
2023/01/23 03:06:34;;;;;;;0.73;0.73;;;;;;;2.55;100.00;101790.47;5035582;28;20471;-55
2023/01/23 03:09:04;;;;;;;0.20;0.20;;;;;;;2.49;100.00;101790.31;5022655;28;20448;-55
2023/01/23 03:11:31;;;;;;;0.40;0.40;;;;;;;2.48;100.00;101795.53;5034973;28;20452;-55
2023/01/23 03:13:57;;;;;;;0.70;0.70;;;;;;;2.57;100.00;101799.28;5035135;28;20448;-55
2023/01/23 03:16:24;;;;;;;1.47;1.43;;;;;;;2.61;100.00;101797.66;5034602;28;20538;-55
2023/01/23 03:18:50;;;;;;;3.00;0.83;;;;;;;2.56;100.00;101794.88;5034822;28;20886;-55
2023/01/23 03:21:20;;;;;;;1.73;0.57;;;;;;;2.59;100.00;101797.56;5034791;28;20555;-55
2023/01/23 03:23:47;;;;;;;1.03;0.63;;;;;;;2.68;100.00;101791.72;5034773;28;20474;-55
2023/01/23 03:26:14;;;;;;;0.87;0.87;;;;;;;2.66;100.00;101789.03;5034609;28;20472;-55
2023/01/23 03:31:25;;;;;;;0.73;0.67;;;;;;;2.65;100.00;101800.41;5034754;28;20605;-55
2023/01/23 03:33:52;;;;;;;0.37;0.37;;;;;;;2.70;100.00;101804.88;5034981;28;20456;-55
2023/01/23 03:36:19;;;;;;;0.30;0.20;;;;;;;2.72;99.11;101809.31;5034524;28;20491;-55
2023/01/23 03:41:31;;;;;;;1.00;1.00;;;;;;;2.59;99.46;101809.81;5022252;28;20440;-55
2023/01/23 03:43:57;;;;;;;2.60;1.03;;;;;;;2.46;100.00;101808.56;5034546;28;20447;-55
2023/01/23 03:46:23;;;;;;;1.90;1.67;;;;;;;2.66;99.64;101815.28;5034612;28;20444;-55
2023/01/23 03:48:50;;;;;;;2.20;1.40;;;;;;;2.48;99.53;101812.16;5040166;28;20455;-55
2023/01/23 03:51:16;;;;;;;0.50;0.40;;;;;;;2.56;99.90;101810.63;5034823;28;20455;-55
2023/01/23 03:53:43;;;;;;;0.30;0.30;;;;;;;2.60;99.37;101811.59;5033065;28;20467;-55
2023/01/23 03:56:09;;;;;;;1.70;1.60;;;;;;;2.55;100.00;101810.59;5034177;28;21000;-55
2023/01/23 03:58:36;;;;;;;0.87;0.87;;;;;;;2.55;99.80;101815.84;5034180;28;20473;-55
2023/01/23 04:01:05;;;;;;;2.53;0.43;;;;;;;2.46;100.00;101824.31;5034229;28;20459;-55
2023/01/23 04:03:32;;;;;;;1.33;1.23;;;;;;;2.29;100.00;101818.59;5033938;28;20475;-55
2023/01/23 04:05:58;;;;;;;1.13;0.77;;;;;;;2.26;100.00;101817.63;5038808;28;20459;-55
2023/01/23 04:08:25;;;;;;;1.13;1.13;;;;;;;2.36;100.00;101811.81;5033954;28;20460;-55
2023/01/23 04:11:00;;;;;;;1.63;1.07;;;;;;;2.42;100.00;101818.94;5044747;28;20486;-55
2023/01/23 04:13:26;;;;;;;0.83;0.80;;;;;;;2.28;100.00;101821.16;5033611;28;20965;-55
2023/01/23 04:15:53;;;;;;;1.33;0.60;;;;;;;2.54;100.00;101821.94;5033853;28;20495;-55
2023/01/23 04:18:19;;;;;;;0.50;0.50;;;;;;;2.53;99.33;101815.78;5033455;28;20792;-55
2023/01/23 04:20:46;;;;;;;4.20;1.40;;;;;;;2.56;100.00;101813.25;5036557;28;20460;-55
2023/01/23 04:23:12;;;;;;;1.27;0.97;;;;;;;2.51;99.29;101813.97;5031607;28;20562;-55
2023/01/23 04:25:39;;;;;;;0.57;0.57;;;;;;;2.49;99.59;101813.03;5033699;28;20455;-55
2023/01/23 04:28:05;;;;;;;3.27;0.50;;;;;;;2.38;100.00;101815.34;5033598;28;20458;-55
2023/01/23 04:30:32;;;;;;;0.40;0.40;;;;;;;2.54;99.21;101809.69;5033613;28;20448;-55
2023/01/23 04:32:58;;;;;;;0.30;0.30;;;;;;;2.48;100.00;101808.66;5033333;28;20563;-55
2023/01/23 04:35:25;;;;;;;0.30;0.30;;;;;;;2.50;99.54;101818.34;5033394;28;20452;-55
2023/01/23 04:37:51;;;;;;;1.00;0.80;;;;;;;2.64;98.98;101810.84;5033324;28;20495;-55
2023/01/23 04:40:18;;;;;;;0.50;0.50;;;;;;;2.64;99.31;101811.75;5033434;28;21010;-55
2023/01/23 04:42:45;;;;;;;1.63;1.30;;;;;;;2.68;99.64;101820.59;5032939;28;20475;-55
2023/01/23 04:45:11;;;;;;;2.07;1.97;;;;;;;2.75;98.85;101813.78;5033169;28;20863;-55
2023/01/23 04:47:38;;;;;;;0.80;0.60;;;;;;;2.50;99.85;101820.97;5032867;28;20456;-55
2023/01/23 04:50:04;;;;;;;0.73;0.73;;;;;;;2.59;99.20;101815.94;5040619;28;20460;-55
2023/01/23 04:52:31;;;;;;;0.73;0.73;;;;;;;2.68;99.26;101821.47;5038970;28;20661;-55
2023/01/23 04:54:57;;;;;;;1.33;0.93;;;;;;;2.55;99.97;101816.72;5039619;28;20460;-55
2023/01/23 04:57:24;;;;;;;0.40;0.40;;;;;;;2.53;100.00;101804.41;5033152;28;20495;-55
2023/01/23 04:59:50;;;;;;;0.67;0.67;;;;;;;2.65;99.37;101805.66;5032793;28;20462;-55
2023/01/23 05:02:16;;;;;;;1.10;1.10;;;;;;;2.65;98.68;101816.16;5032931;28;20859;-55
2023/01/23 05:04:43;;;;;;;0.40;0.40;;;;;;;2.55;99.93;101797.47;5033145;28;20443;-56
2023/01/23 05:07:11;;;;;;;0.67;0.57;;;;;;;2.72;99.57;101793.56;5033219;28;20484;-55
2023/01/23 05:09:38;;;;;;;0.87;0.80;;;;;;;2.63;99.32;101802.09;5034403;28;20489;-54
2023/01/23 05:12:05;;;;;;;0.60;0.60;;;;;;;2.81;99.22;101792.94;5032481;28;20470;-55
2023/01/23 05:14:31;;;;;;;0.33;0.30;;;;;;;2.69;99.09;101803.97;5033929;28;20456;-54
2023/01/23 05:16:58;;;;;;;1.03;1.03;;;;;;;2.50;100.00;101801.69;5037033;28;20500;-54
2023/01/23 05:19:24;;;;;;;2.67;2.33;;;;;;;2.60;100.00;101816.84;5039031;28;20456;-54
2023/01/23 05:21:51;;;;;;;1.23;0.40;;;;;;;2.48;100.00;101806.91;5032711;28;20483;-55
2023/01/23 05:24:17;;;;;;;0.40;0.40;;;;;;;2.59;100.00;101818.56;5033291;28;20863;-55
2023/01/23 05:26:43;;;;;;;0.30;0.23;;;;;;;2.42;100.00;101819.84;5034063;28;20465;-54
2023/01/23 05:29:10;;;;;;;0.83;0.83;;;;;;;2.41;100.00;101823.31;5040712;28;20451;-55
2023/01/23 05:31:36;;;;;;;2.00;1.87;;;;;;;2.63;100.00;101833.59;5032451;28;20452;-54
2023/01/23 05:34:03;;;;;;;2.10;0.87;;;;;;;2.47;100.00;101831.38;5033048;28;20452;-54
2023/01/23 05:36:29;;;;;;;0.77;0.77;;;;;;;2.51;100.00;101833.22;5032431;28;21012;-54
2023/01/23 05:38:56;;;;;;;0.30;0.20;;;;;;;2.60;100.00;101848.34;5015427;28;20474;-55
2023/01/23 05:41:22;;;;;;;0.60;0.60;;;;;;;2.74;100.00;101847.03;5032492;28;20451;-54
2023/01/23 05:43:51;;;;;;;0.40;0.40;;;;;;;2.63;99.74;101846.72;5033224;28;20479;-55
2023/01/23 05:46:17;;;;;;;0.50;0.50;;;;;;;2.52;100.00;101842.88;5032379;28;20506;-55
2023/01/23 05:48:48;;;;;;;1.87;1.77;;;;;;;2.66;100.00;101852.03;5032888;28;20464;-54
2023/01/23 05:51:15;;;;;;;0.53;0.53;;;;;;;2.65;99.75;101852.00;5033192;28;20539;-54
2023/01/23 05:53:42;;;;;;;1.13;1.13;;;;;;;2.60;99.97;101851.88;5032684;28;20475;-55
2023/01/23 05:56:09;;;;;;;0.40;0.40;;;;;;;2.52;100.00;101849.88;5015175;28;20534;-54
2023/01/23 05:58:35;;;;;;;0.40;0.30;;;;;;;2.48;100.00;101862.03;5032543;28;21041;-55
2023/01/23 06:01:02;;;;;;;0.50;0.50;;;;;;;2.42;100.00;101867.06;5032391;28;20455;-54
2023/01/23 06:03:29;;;;;;;0.50;0.50;;;;;;;2.48;100.00;101871.63;5015480;28;20475;-55
2023/01/23 06:05:56;;;;;;;0.67;0.30;;;;;;;2.58;100.00;101864.03;5032704;28;20451;-55
2023/01/23 06:08:22;;;;;;;1.60;0.60;;;;;;;2.45;100.00;101864.53;5032654;28;20451;-55
2023/01/23 06:10:49;;;;;;;0.60;0.43;;;;;;;2.47;100.00;101872.44;5032793;28;20454;-55
2023/01/23 06:13:16;;;;;;;0.77;0.77;;;;;;;2.55;100.00;101873.56;5033026;28;20537;-55
2023/01/23 06:15:42;;;;;;;0.80;0.80;;;;;;;2.68;100.00;101867.84;5015854;28;20822;-55
2023/01/23 06:18:08;;;;;;;1.33;0.33;;;;;;;2.75;100.00;101861.94;5036582;28;20493;-56
2023/01/23 06:20:35;;;;;;;0.83;0.83;;;;;;;2.59;100.00;101870.19;5036567;28;20447;-55
2023/01/23 06:23:02;;;;;;;0.60;0.60;;;;;;;2.71;100.00;101869.66;5036714;28;20486;-55
2023/01/23 06:25:28;;;;;;;2.20;1.30;;;;;;;2.72;99.90;101880.19;5036635;28;20462;-55
2023/01/23 06:27:54;;;;;;;0.60;0.60;;;;;;;2.85;99.99;101874.44;5035945;28;20932;-56
2023/01/23 06:30:21;;;;;;;0.30;0.30;;;;;;;2.77;99.61;101876.00;5035836;28;21762;-55
2023/01/23 06:32:47;;;;;;;2.60;1.57;;;;;;;2.67;100.00;101879.19;5035761;28;20477;-55
2023/01/23 06:35:14;;;;;;;1.07;0.90;;;;;;;2.57;100.00;101882.38;5035835;28;20937;-55
2023/01/23 06:37:41;;;;;;;0.73;0.40;;;;;;;2.77;100.00;101876.00;5035782;28;20495;-55
2023/01/23 06:40:11;;;;;;;0.30;0.20;;;;;;;2.75;99.80;101876.78;5035702;28;20447;-55
2023/01/23 06:42:42;;;;;;;0.83;0.50;;;;;;;2.80;99.82;101878.69;5035274;28;20510;-55
2023/01/23 06:45:09;;;;;;;0.27;0.20;;;;;;;2.97;99.64;101882.69;5036107;28;20451;-55
2023/01/23 06:47:36;;;;;;;0.63;0.50;;;;;;;2.70;99.66;101881.00;5035718;28;20448;-55
2023/01/23 06:50:04;;;;;;;1.33;0.77;;;;;;;2.87;99.76;101888.50;5035909;28;20455;-55
2023/01/23 06:52:30;;;;;;;0.43;0.43;;;;;;;2.71;100.00;101888.03;5035651;28;20467;-55
2023/01/23 06:54:56;;;;;;;0.53;0.53;;;;;;;2.67;100.00;101884.44;5035822;28;20455;-56
2023/01/23 06:57:23;;;;;;;1.43;0.53;;;;;;;2.88;100.00;101890.31;5035441;28;20862;-56
2023/01/23 06:59:49;;;;;;;0.60;0.40;;;;;;;2.83;100.00;101885.75;5035732;28;20452;-55
2023/01/23 07:02:15;;;;;;;0.70;0.60;;;;;;;2.82;99.75;101892.75;5035974;28;20471;-55
2023/01/23 07:04:42;;;;;;;0.87;0.87;;;;;;;2.77;100.00;101897.00;5036541;28;20815;-55
2023/01/23 07:07:08;;;;;;;1.20;1.20;;;;;;;2.88;99.88;101899.94;5035854;28;20451;-56
2023/01/23 07:09:35;;;;;;;0.50;0.50;;;;;;;2.86;100.00;101898.97;5035108;28;20447;-55
2023/01/23 07:12:02;;;;;;;0.70;0.70;;;;;;;2.72;100.00;101905.56;5034955;28;20468;-55
2023/01/23 07:14:28;;;;;;;0.67;0.67;;;;;;;2.72;100.00;101908.19;5035385;28;20452;-55
2023/01/23 07:16:55;;;;;;;0.77;0.77;;;;;;;2.71;100.00;101902.03;5035147;28;20483;-55
2023/01/23 07:19:21;;;;;;;0.80;0.60;;;;;;;2.84;100.00;101916.44;5034810;28;20466;-55
2023/01/23 07:21:48;;;;;;;1.23;1.13;;;;;;;2.84;100.00;101922.56;5034720;28;20482;-55
2023/01/23 07:24:14;;;;;;;0.40;0.40;;;;;;;2.90;100.00;101925.38;5034742;28;20451;-56
2023/01/23 07:26:41;;;;;;;0.77;0.67;;;;;;;2.93;100.00;101917.59;5034118;28;20451;-56
2023/01/23 07:29:10;;;;;;;1.17;1.07;;;;;;;2.94;100.00;101928.97;5034631;28;20459;-56
2023/01/23 07:31:37;;;;;;;1.00;1.00;;;;;;;2.87;100.00;101924.38;5035149;28;20447;-57
2023/01/23 07:34:03;;;;;;;1.90;1.80;;;;;;;2.86;100.00;101918.25;5018480;28;20452;-55
2023/01/23 07:36:29;;;;;;;1.53;1.43;;;;;;;2.87;100.00;101919.13;5035321;28;20448;-55
2023/01/23 07:38:57;;;;;;;0.40;0.37;;;;;;;2.90;100.00;101925.38;5035172;28;20462;-55
2023/01/23 07:41:24;;;;;;;0.50;0.50;;;;;;;2.97;100.00;101929.06;5022433;28;20456;-55
2023/01/23 07:43:51;;;;;;;0.57;0.57;;;;;;;2.94;100.00;101937.75;5035303;28;20485;-56
2023/01/23 07:46:17;;;;;;;1.13;1.13;;;;;;;2.81;100.00;101945.22;5034698;28;20543;-55
2023/01/23 07:48:44;;;;;;;0.43;0.30;;;;;;;2.83;100.00;101952.28;5034576;28;20450;-56
2023/01/23 07:51:10;;;;;;;1.27;1.17;;;;;;;2.79;100.00;101947.81;5034748;28;20452;-55
2023/01/23 07:53:37;;;;;;;1.10;1.10;;;;;;;2.95;100.00;101957.91;5035340;28;20939;-55
2023/01/23 07:56:04;;;;;;;1.50;1.43;;;;;;;2.80;100.00;101960.09;5035312;28;20456;-55
2023/01/23 07:58:31;;;;;;;0.90;0.90;;;;;;;2.87;100.00;101961.16;5017493;28;20488;-56
2023/01/23 08:00:58;;;;;;;0.83;0.83;;;;;;;2.89;100.00;101972.63;5034765;28;20451;-55
2023/01/23 08:03:27;;;;;;;0.93;0.93;;;;;;;2.90;100.00;101969.13;5034010;28;20507;-55
2023/01/23 08:05:54;;;;;;;0.77;0.77;;;;;;;2.91;100.00;101965.66;5034000;28;20451;-55
2023/01/23 08:08:20;;;;;;;0.93;0.93;;;;;;;2.86;100.00;101976.00;5033682;28;20455;-55
2023/01/23 08:10:47;;;;;;;4.37;1.40;;;;;;;2.91;100.00;101977.06;5034305;28;20447;-55
2023/01/23 08:13:13;;;;;;;0.43;0.43;;;;;;;2.83;100.00;101980.28;5033810;28;20472;-55
2023/01/23 08:15:39;;;;;;;1.13;1.03;;;;;;;2.96;100.00;101987.69;5033950;28;20448;-55
2023/01/23 08:18:06;;;;;;;0.80;0.80;;;;;;;2.78;100.00;101988.03;5034158;28;20491;-55
2023/01/23 08:20:32;;;;;;;1.13;1.03;;;;;;;2.83;100.00;101994.31;5034378;28;20510;-56
2023/01/23 08:23:00;;;;;;;0.50;0.50;;;;;;;2.99;100.00;101985.16;5034317;28;20479;-55
2023/01/23 08:25:27;;;;;;;1.07;1.07;;;;;;;2.83;100.00;101983.81;5034530;28;20448;-55
2023/01/23 08:27:53;;;;;;;1.13;0.97;;;;;;;2.81;100.00;101982.88;5034281;28;20448;-55
2023/01/23 08:30:20;;;;;;;0.70;0.70;;;;;;;2.79;100.00;101986.31;5034705;28;20451;-55
2023/01/23 08:32:47;;;;;;;1.83;1.00;;;;;;;3.01;100.00;101987.81;5033816;28;20852;-55
2023/01/23 08:35:13;;;;;;;2.00;0.73;;;;;;;2.89;100.00;101983.13;5016626;28;20459;-55
2023/01/23 08:37:41;;;;;;;1.37;1.27;;;;;;;2.97;100.00;101990.34;5034137;28;20602;-55
2023/01/23 08:40:08;;;;;;;1.20;1.20;;;;;;;2.72;100.00;101994.81;5033530;28;20906;-55
2023/01/23 08:42:34;;;;;;;0.40;0.40;;;;;;;2.74;100.00;101986.16;5033713;28;20481;-55
2023/01/23 08:45:01;;;;;;;1.63;0.50;;;;;;;2.85;100.00;101986.47;5015999;28;20886;-55
2023/01/23 08:47:27;;;;;;;0.40;0.40;;;;;;;2.92;100.00;101991.06;5033271;28;20451;-55
2023/01/23 08:49:54;;;;;;;0.70;0.70;;;;;;;2.89;100.00;101991.00;5033130;28;21020;-55
2023/01/23 08:52:20;;;;;;;3.03;0.90;;;;;;;2.86;100.00;101989.13;5033119;28;20478;-55
2023/01/23 08:54:46;;;;;;;1.43;0.90;;;;;;;2.77;100.00;101988.00;5033296;28;20462;-55
2023/01/23 08:57:13;;;;;;;1.23;1.23;;;;;;;2.95;100.00;101996.41;5033100;28;20487;-55
2023/01/23 08:59:41;;;;;;;0.40;0.33;;;;;;;2.89;100.00;101993.63;5015438;28;20452;-55
2023/01/23 09:02:11;;;;;;;1.37;1.33;;;;;;;2.93;100.00;101990.22;5032845;28;20533;-56
2023/01/23 09:04:38;;;;;;;0.63;0.63;;;;;;;3.09;100.00;101988.94;5032913;28;20539;-55
2023/01/23 09:07:04;;;;;;;9.50;0.93;;;;;;;3.16;100.00;101990.91;5032909;28;20513;-55
2023/01/23 09:09:31;;;;;;;0.40;0.20;;;;;;;3.12;100.00;101992.53;5032982;28;20460;-55
2023/01/23 09:11:57;;;;;;;0.50;0.50;;;;;;;3.24;100.00;101992.00;5032752;28;20479;-55
2023/01/23 09:14:23;;;;;;;2.63;2.10;;;;;;;3.20;100.00;101998.94;5032820;28;20796;-55
2023/01/23 09:16:50;;;;;;;1.10;0.77;;;;;;;3.16;100.00;101989.19;5032462;28;20447;-56
2023/01/23 09:19:16;;;;;;;5.30;0.87;;;;;;;3.15;100.00;101992.66;5032797;28;20953;-55
2023/01/23 09:21:43;;;;;;;0.53;0.50;;;;;;;3.15;100.00;101992.66;5015112;28;20493;-55
2023/01/23 09:24:09;;;;;;;0.40;0.30;;;;;;;3.16;100.00;101993.53;5032751;28;20448;-55
2023/01/23 09:26:36;;;;;;;2.20;0.97;;;;;;;2.96;100.00;101999.09;5032712;28;20461;-55
2023/01/23 09:29:02;;;;;;;0.50;0.50;;;;;;;3.22;100.00;102013.00;5032518;28;20448;-55
2023/01/23 09:31:29;;;;;;;0.73;0.40;;;;;;;3.10;100.00;102011.75;5032460;28;20451;-55
2023/01/23 09:33:56;;;;;;;0.40;0.40;;;;;;;3.20;100.00;102008.53;5032846;28;20455;-55
2023/01/23 09:36:22;;;;;;;1.57;1.23;;;;;;;3.18;100.00;102023.38;5032651;28;20456;-55
2023/01/23 09:39:06;;;;;;;0.30;0.30;;;;;;;3.13;100.00;102012.72;5032250;28;20499;-55
2023/01/23 09:41:33;;;;;;;1.10;1.00;;;;;;;3.05;100.00;102014.25;5032490;28;20448;-55
2023/01/23 09:44:06;;;;;;;0.50;0.47;;;;;;;3.24;100.00;102013.03;5032534;28;20451;-55
2023/01/23 09:47:01;;;;;;;1.37;1.03;;;;;;;3.28;100.00;102020.16;5032305;28;20883;-56
2023/01/23 09:49:40;;;;;;;5.23;1.30;;;;;;;3.33;100.00;102013.31;5032380;28;20498;-55
2023/01/23 09:52:12;;;;;;;0.30;0.30;;;;;;;3.40;100.00;102016.97;5035914;28;20471;-55
2023/01/23 09:54:47;;;;;;;2.73;0.60;;;;;;;3.38;99.89;102016.06;5036840;28;20497;-55
2023/01/23 09:57:14;;;;;;;0.63;0.60;;;;;;;3.34;99.82;102011.56;5036319;28;21003;-55
2023/01/23 09:59:49;;;;;;;1.40;0.80;;;;;;;3.52;99.45;102012.97;5036340;28;20862;-55
2023/01/23 10:02:27;;;;;;;1.73;1.37;;;;;;;3.56;99.05;102020.13;5035955;28;20507;-55
2023/01/23 10:04:56;;;;;;;0.53;0.53;;;;;;;3.50;98.31;102022.56;5036549;28;20459;-55
2023/01/23 10:07:42;;;;;;;2.70;2.60;;;;;;;3.41;98.64;102019.66;5030105;28;20455;-55
2023/01/23 10:10:44;;;;;;;1.10;0.80;;;;;;;3.49;98.52;102022.50;5036214;28;20505;-55
2023/01/23 10:13:47;;;;;;;1.57;1.20;;;;;;;3.40;98.59;102022.25;5036168;28;20466;-55
2023/01/23 10:16:13;;;;;;;1.13;1.13;;;;;;;3.53;98.84;102019.13;5036099;28;20983;-55
2023/01/23 10:18:53;;;;;;;1.10;1.10;;;;;;;3.52;98.28;102018.22;5036406;28;20491;-55
2023/01/23 10:21:37;;;;;;;0.77;0.70;;;;;;;3.52;97.99;102019.97;5035818;28;20992;-55
2023/01/23 10:24:25;;;;;;;2.30;1.00;;;;;;;3.52;97.01;102017.34;5036275;28;20455;-55
2023/01/23 10:26:57;;;;;;;5.10;1.43;;;;;;;3.58;97.62;102021.88;5022593;28;21004;-55
2023/01/23 10:29:37;;;;;;;1.27;1.17;;;;;;;3.52;97.32;102034.00;5035728;28;20440;-55
2023/01/23 10:32:19;;;;;;;2.17;2.07;;;;;;;3.36;96.69;102026.53;5018524;28;20474;-55
2023/01/23 10:34:53;;;;;;;1.87;1.77;;;;;;;3.61;96.94;102017.59;5036144;28;20448;-55
2023/01/23 10:37:39;;;;;;;1.23;1.13;;;;;;;3.40;97.25;102015.25;5035778;28;20789;-55
2023/01/23 10:40:11;;;;;;;1.20;0.73;;;;;;;3.41;97.72;102024.91;5025150;28;20443;-55
2023/01/23 10:42:37;;;;;;;0.70;0.70;;;;;;;3.59;96.81;102027.19;5035893;28;20470;-55
2023/01/23 10:45:05;;;;;;;6.63;2.57;;;;;;;3.56;97.21;102016.56;5036043;28;20451;-55
2023/01/23 10:47:42;;;;;;;0.70;0.70;;;;;;;3.58;96.38;102017.53;5035493;28;20832;-55
2023/01/23 10:50:10;;;;;;;0.83;0.70;;;;;;;3.60;95.95;102020.19;5035684;28;20505;-55
2023/01/23 10:52:42;;;;;;;4.93;1.10;;;;;;;3.80;96.14;102024.25;5035384;28;20467;-55
2023/01/23 10:55:18;;;;;;;0.67;0.47;;;;;;;3.86;95.46;102021.78;5018131;28;20455;-54
2023/01/23 10:57:47;;;;;;;2.00;1.90;;;;;;;3.69;95.28;102023.06;5022331;28;20486;-55
2023/01/23 11:00:26;;;;;;;1.57;1.47;;;;;;;3.66;95.87;102013.34;5035220;28;20918;-55
2023/01/23 11:02:52;;;;;;;3.53;0.47;;;;;;;3.92;95.06;102007.91;5035143;28;20478;-56
2023/01/23 11:05:36;;;;;;;1.40;1.23;;;;;;;4.01;94.21;102013.41;5035651;28;20937;-55
2023/01/23 11:08:24;;;;;;;1.07;0.70;;;;;;;3.88;94.57;102006.94;5035411;28;20478;-55
2023/01/23 11:10:51;;;;;;;0.50;0.50;;;;;;;3.71;94.81;102006.50;5024260;28;20457;-55
2023/01/23 11:13:28;;;;;;;0.73;0.73;;;;;;;3.78;94.88;102002.28;5037040;28;20470;-55
2023/01/23 11:15:55;;;;;;;0.70;0.50;;;;;;;3.94;94.11;102009.72;5035361;28;20444;-55
2023/01/23 11:18:32;;;;;;;1.33;0.83;;;;;;;3.65;95.32;102003.69;5035028;28;20491;-55
2023/01/23 11:21:00;;;;;;;1.20;1.20;;;;;;;3.92;95.08;102007.91;5035112;28;20474;-55
2023/01/23 11:23:28;;;;;;;0.93;0.90;;;;;;;3.82;94.72;102012.91;5034802;28;20472;-55
2023/01/23 11:25:54;;;;;;;0.93;0.60;;;;;;;3.83;94.45;102000.66;5034831;28;20506;-55
2023/01/23 11:28:46;;;;;;;0.30;0.30;;;;;;;3.95;94.70;101995.72;5034612;28;20957;-55
2023/01/23 11:31:17;;;;;;;1.00;0.90;;;;;;;3.71;94.17;102001.22;5034667;28;20555;-55
2023/01/23 11:33:57;;;;;;;0.50;0.50;;;;;;;3.79;94.93;101994.41;5034632;28;20846;-55
2023/01/23 11:36:37;;;;;;;3.63;1.30;;;;;;;3.86;94.67;101995.50;5034458;28;21016;-55
2023/01/23 11:39:25;;;;;;;0.80;0.80;;;;;;;3.83;95.25;101988.38;5034751;28;20519;-55
2023/01/23 11:41:52;;;;;;;2.30;0.90;;;;;;;3.71;94.91;101987.19;5024586;28;20471;-55
2023/01/23 11:44:20;;;;;;;1.70;1.13;;;;;;;3.60;94.45;101992.16;5034653;28;20447;-55